createdAt,value
2022-11-22T00:00:28.106Z,69.24
2022-11-22T00:02:55.643Z,69.00
2022-11-22T00:05:22.570Z,68.48
2022-11-22T00:07:49.583Z,68.58
2022-11-22T00:10:16.894Z,68.49
2022-11-22T00:12:44.359Z,68.73
2022-11-22T00:15:12.005Z,68.63
2022-11-22T00:17:39.322Z,67.77
2022-11-22T00:20:08.773Z,67.75
2022-11-22T00:22:39.715Z,68.08
2022-11-22T00:25:09.980Z,68.31
2022-11-22T00:27:36.865Z,67.86
2022-11-22T00:30:04.338Z,68.65
2022-11-22T00:32:31.334Z,68.39
2022-11-22T00:34:58.204Z,68.48
2022-11-22T00:37:25.303Z,68.58
2022-11-22T00:39:52.196Z,68.76
2022-11-22T00:42:19.098Z,68.49
2022-11-22T00:44:45.987Z,68.40
2022-11-22T00:47:12.906Z,67.83
2022-11-22T00:49:39.818Z,67.89
2022-11-22T00:52:06.834Z,68.48
2022-11-22T00:54:33.718Z,68.65
2022-11-22T00:57:00.582Z,68.52
2022-11-22T00:59:27.656Z,68.23
2022-11-22T01:01:54.750Z,68.27
2022-11-22T01:04:21.829Z,68.33
2022-11-22T01:06:48.791Z,68.16
2022-11-22T01:09:21.708Z,68.64
2022-11-22T01:11:49.006Z,68.54
2022-11-22T01:14:16.758Z,68.15
2022-11-22T01:16:43.728Z,68.39
2022-11-22T01:19:10.955Z,68.86
2022-11-22T01:21:38.220Z,69.01
2022-11-22T01:24:05.508Z,68.50
2022-11-22T01:26:33.590Z,69.15
2022-11-22T01:29:00.582Z,69.25
2022-11-22T01:31:27.443Z,68.81
2022-11-22T01:33:54.339Z,69.11
2022-11-22T01:36:21.308Z,68.48
2022-11-22T01:38:48.245Z,68.42
2022-11-22T01:41:15.202Z,69.42
2022-11-22T01:43:42.109Z,69.04
2022-11-22T01:46:34.946Z,68.27
2022-11-22T01:49:11.620Z,68.82
2022-11-22T01:51:44.691Z,68.64
2022-11-22T01:54:16.050Z,68.77
2022-11-22T01:56:46.128Z,69.41
2022-11-22T01:59:18.770Z,69.57
2022-11-22T02:01:45.770Z,69.05
2022-11-22T02:04:17.557Z,69.08
2022-11-22T02:07:14.420Z,69.13
2022-11-22T02:09:43.553Z,69.01
2022-11-22T02:12:12.297Z,69.51
2022-11-22T02:14:40.870Z,69.44
2022-11-22T02:17:07.966Z,69.03
2022-11-22T02:19:45.602Z,68.92
2022-11-22T02:22:27.305Z,69.53
2022-11-22T02:25:12.897Z,69.57
2022-11-22T02:27:40.318Z,69.61
2022-11-22T02:30:07.688Z,69.62
2022-11-22T02:32:34.769Z,69.60
2022-11-22T02:35:01.797Z,69.57
2022-11-22T02:37:33.098Z,69.81
2022-11-22T02:40:05.132Z,69.22
2022-11-22T02:42:33.720Z,69.14
2022-11-22T02:45:00.616Z,69.11
2022-11-22T02:47:27.473Z,70.33
2022-11-22T02:49:54.393Z,69.51
2022-11-22T02:52:21.348Z,70.06
2022-11-22T02:54:48.182Z,69.74
2022-11-22T02:57:15.046Z,69.75
2022-11-22T02:59:41.909Z,70.12
2022-11-22T03:02:08.818Z,69.78
2022-11-22T03:04:35.737Z,69.77
2022-11-22T03:07:03.066Z,69.55
2022-11-22T03:09:31.091Z,69.40
2022-11-22T03:11:58.519Z,69.18
2022-11-22T03:14:26.023Z,69.80
2022-11-22T03:16:53.002Z,69.43
2022-11-22T03:19:20.350Z,70.09
2022-11-22T03:21:47.256Z,70.06
2022-11-22T03:24:14.455Z,70.27
2022-11-22T03:26:41.487Z,69.66
2022-11-22T03:29:08.356Z,69.88
2022-11-22T03:31:36.073Z,70.01
2022-11-22T03:34:03.007Z,70.12
2022-11-22T03:36:29.910Z,70.22
2022-11-22T03:38:56.931Z,70.33
2022-11-22T03:41:23.783Z,70.76
2022-11-22T03:43:50.741Z,70.81
2022-11-22T03:46:19.626Z,70.36
2022-11-22T03:48:47.144Z,70.75
2022-11-22T03:51:14.233Z,70.52
2022-11-22T03:53:41.161Z,69.97
2022-11-22T03:56:08.132Z,70.50
2022-11-22T03:58:35.243Z,70.69
2022-11-22T04:01:02.349Z,71.83
2022-11-22T04:03:29.305Z,70.81
2022-11-22T04:05:56.603Z,71.42
2022-11-22T04:08:23.794Z,71.17
2022-11-22T04:10:51.500Z,71.25
2022-11-22T04:13:19.238Z,72.40
2022-11-22T04:15:46.286Z,71.72
2022-11-22T04:18:14.346Z,71.77
2022-11-22T04:20:59.701Z,71.66
2022-11-22T04:23:32.444Z,70.66
2022-11-22T04:26:00.931Z,71.30
2022-11-22T04:28:53.569Z,72.71
2022-11-22T04:31:33.445Z,72.62
2022-11-22T04:34:00.322Z,71.34
2022-11-22T04:36:27.205Z,71.79
2022-11-22T04:38:54.068Z,71.41
2022-11-22T04:41:21.148Z,71.39
2022-11-22T04:44:14.470Z,70.45
2022-11-22T04:46:41.331Z,70.55
2022-11-22T04:49:08.223Z,72.68
2022-11-22T04:51:53.929Z,72.13
2022-11-22T04:54:20.959Z,71.77
2022-11-22T04:56:48.099Z,73.99
2022-11-22T04:59:15.104Z,72.87
2022-11-22T05:01:41.989Z,73.07
2022-11-22T05:04:08.869Z,72.42
2022-11-22T05:06:37.459Z,73.22
2022-11-22T05:09:04.725Z,72.57
2022-11-22T05:11:31.658Z,72.84
2022-11-22T05:13:58.700Z,73.17
2022-11-22T05:16:25.581Z,73.27
2022-11-22T05:19:01.657Z,73.45
2022-11-22T05:21:30.005Z,73.20
2022-11-22T05:23:57.201Z,73.07
2022-11-22T05:26:30.173Z,73.11
2022-11-22T05:29:00.836Z,73.76
2022-11-22T05:31:28.001Z,73.47
2022-11-22T05:33:57.085Z,74.37
2022-11-22T05:36:24.736Z,73.48
2022-11-22T05:38:52.345Z,74.51
2022-11-22T05:41:19.366Z,73.64
2022-11-22T05:43:46.472Z,74.48
2022-11-22T05:46:26.438Z,74.65
2022-11-22T05:48:55.235Z,74.69
2022-11-22T05:51:29.074Z,74.21
2022-11-22T05:53:59.356Z,74.30
2022-11-22T05:56:26.249Z,73.79
2022-11-22T05:58:53.408Z,73.27
2022-11-22T06:01:22.407Z,74.39
2022-11-22T06:03:50.150Z,74.69
2022-11-22T06:06:20.232Z,73.98
2022-11-22T06:08:48.848Z,74.40
2022-11-22T06:11:21.866Z,74.65
2022-11-22T06:13:51.842Z,74.82
2022-11-22T06:16:18.828Z,75.42
2022-11-22T06:18:45.785Z,75.05
2022-11-22T06:21:15.920Z,75.75
2022-11-22T06:23:43.123Z,75.41
2022-11-22T06:26:12.545Z,74.14
2022-11-22T06:28:40.879Z,75.60
2022-11-22T06:31:28.509Z,75.11
2022-11-22T06:33:56.213Z,75.27
2022-11-22T06:36:27.087Z,74.24
2022-11-22T06:38:54.213Z,74.47
2022-11-22T06:41:23.906Z,73.70
2022-11-22T06:43:52.642Z,74.60
2022-11-22T06:46:21.838Z,74.45
2022-11-22T06:48:49.745Z,75.35
2022-11-22T06:51:25.559Z,74.78
2022-11-22T06:53:55.454Z,74.25
2022-11-22T06:56:26.346Z,75.40
2022-11-22T06:58:53.985Z,74.11
2022-11-22T07:01:28.941Z,75.40
2022-11-22T07:03:58.482Z,74.70
2022-11-22T07:06:31.085Z,74.61
2022-11-22T07:08:59.632Z,74.49
2022-11-22T07:11:28.726Z,75.49
2022-11-22T07:14:01.710Z,74.19
2022-11-22T07:16:32.709Z,75.63
2022-11-22T07:19:02.907Z,74.93
2022-11-22T07:21:29.967Z,74.72
2022-11-22T07:23:56.922Z,74.48
2022-11-22T07:26:25.661Z,74.37
2022-11-22T07:28:52.772Z,74.92
2022-11-22T07:31:19.735Z,75.34
2022-11-22T07:33:47.246Z,74.97
2022-11-22T07:36:19.368Z,75.10
2022-11-22T07:38:47.988Z,75.27
2022-11-22T07:41:16.091Z,76.54
2022-11-22T07:43:43.039Z,75.52
2022-11-22T07:46:22.351Z,76.09
2022-11-22T07:48:50.018Z,75.58
2022-11-22T07:51:17.561Z,75.69
2022-11-22T07:53:44.626Z,75.53
2022-11-22T07:56:11.634Z,75.21
2022-11-22T07:58:38.865Z,75.89
2022-11-22T08:01:08.176Z,76.31
2022-11-22T08:03:35.956Z,76.12
2022-11-22T08:06:04.865Z,76.08
2022-11-22T08:08:31.954Z,75.57
2022-11-22T08:10:58.907Z,75.44
2022-11-22T08:13:26.001Z,75.09
2022-11-22T08:15:54.623Z,76.12
2022-11-22T08:18:22.730Z,75.36
2022-11-22T08:20:49.657Z,75.13
2022-11-22T08:23:16.637Z,76.18
2022-11-22T08:25:43.530Z,75.58
2022-11-22T08:28:14.094Z,76.21
2022-11-22T08:30:42.566Z,75.68
2022-11-22T08:33:09.523Z,75.57
2022-11-22T08:35:36.450Z,75.70
2022-11-22T08:38:03.484Z,76.01
2022-11-22T08:40:30.434Z,76.14
2022-11-22T08:42:57.888Z,76.92
2022-11-22T08:45:25.022Z,76.92
2022-11-22T08:47:52.682Z,76.56
2022-11-22T08:50:19.597Z,75.90
2022-11-22T08:52:46.572Z,75.89
2022-11-22T08:55:13.519Z,76.92
2022-11-22T08:57:40.435Z,77.24
2022-11-22T09:00:08.286Z,77.55
2022-11-22T09:02:35.218Z,77.41
2022-11-22T09:05:02.700Z,77.87
2022-11-22T09:10:18.527Z,77.00
2022-11-22T09:12:46.500Z,77.41
2022-11-22T09:15:14.324Z,76.93
2022-11-22T09:17:42.089Z,77.60
2022-11-22T09:20:10.115Z,77.91
2022-11-22T09:22:37.903Z,77.88
2022-11-22T09:25:06.447Z,77.18
2022-11-22T09:27:35.274Z,77.42
2022-11-22T09:30:04.212Z,77.33
2022-11-22T09:32:33.864Z,77.40
2022-11-22T09:35:01.077Z,77.61
2022-11-22T09:37:31.862Z,77.73
2022-11-22T09:39:59.119Z,77.42
2022-11-22T09:42:52.547Z,77.29
2022-11-22T09:45:39.126Z,77.44
2022-11-22T09:48:21.133Z,77.36
2022-11-22T09:51:05.771Z,76.99
2022-11-22T09:53:54.384Z,77.22
2022-11-22T09:56:25.590Z,76.95
2022-11-22T09:58:57.414Z,78.68
2022-11-22T10:01:31.760Z,78.73
2022-11-22T10:04:13.729Z,78.40
2022-11-22T10:06:43.848Z,78.52
2022-11-22T10:09:10.766Z,78.33
2022-11-22T10:11:49.475Z,78.18
2022-11-22T10:14:34.869Z,78.79
2022-11-22T10:17:29.980Z,78.04
2022-11-22T10:20:06.166Z,77.81
2022-11-22T10:22:35.042Z,77.76
2022-11-22T10:25:10.253Z,77.82
2022-11-22T10:27:38.792Z,77.48
2022-11-22T10:30:13.566Z,77.39
2022-11-22T10:32:50.240Z,77.85
2022-11-22T10:35:28.494Z,77.94
2022-11-22T10:38:22.585Z,78.03
2022-11-22T10:41:10.635Z,78.33
2022-11-22T10:43:37.442Z,77.80
2022-11-22T10:46:20.490Z,77.23
2022-11-22T10:49:17.977Z,77.21
2022-11-22T10:52:14.712Z,77.15
2022-11-22T10:55:03.506Z,77.03
2022-11-22T10:57:38.343Z,77.08
2022-11-22T11:00:19.779Z,76.72
2022-11-22T11:02:52.737Z,77.17
2022-11-22T11:05:23.279Z,77.22
2022-11-22T11:07:56.771Z,77.35
2022-11-22T11:10:37.362Z,78.06
2022-11-22T11:13:21.658Z,77.50
2022-11-22T11:15:56.024Z,77.81
2022-11-22T11:18:35.742Z,78.52
2022-11-22T11:21:02.790Z,77.89
2022-11-22T11:23:29.730Z,77.77
2022-11-22T11:26:17.961Z,78.14
2022-11-22T11:28:45.378Z,77.58
2022-11-22T11:31:18.633Z,77.20
2022-11-22T11:33:46.574Z,76.92
2022-11-22T11:36:24.745Z,77.62
2022-11-22T11:38:56.785Z,77.64
2022-11-22T11:41:26.837Z,77.98
2022-11-22T11:43:55.941Z,78.34
2022-11-22T11:46:28.647Z,78.02
2022-11-22T11:49:17.298Z,78.47
2022-11-22T11:51:46.632Z,77.88
2022-11-22T11:54:22.937Z,78.31
2022-11-22T11:56:52.755Z,78.29
2022-11-22T11:59:22.370Z,78.09
2022-11-22T12:01:57.202Z,77.92
2022-11-22T12:04:35.028Z,78.52
2022-11-22T12:07:24.136Z,78.34
2022-11-22T12:09:53.191Z,78.52
2022-11-22T12:12:48.000Z,79.83
2022-11-22T12:15:18.182Z,80.45
2022-11-22T12:18:06.954Z,79.16
2022-11-22T12:20:45.593Z,79.96
2022-11-22T12:23:12.807Z,79.97
2022-11-22T12:25:40.617Z,79.41
2022-11-22T12:28:27.567Z,79.41
2022-11-22T12:30:57.439Z,79.12
2022-11-22T12:33:47.607Z,80.16
2022-11-22T12:39:25.144Z,79.96
2022-11-22T12:42:01.553Z,79.96
2022-11-22T12:44:35.361Z,79.32
2022-11-22T12:47:10.099Z,79.89
2022-11-22T12:48:22.656Z,79.37
2022-11-22T12:49:55.131Z,80.20
2022-11-22T12:52:44.146Z,79.94
2022-11-22T12:55:11.053Z,80.11
2022-11-22T12:57:58.147Z,79.52
2022-11-22T13:00:28.958Z,79.80
2022-11-22T13:03:07.462Z,79.74
2022-11-22T13:05:43.578Z,79.87
2022-11-22T13:08:33.198Z,79.77
2022-11-22T13:11:16.761Z,79.64
2022-11-22T13:13:47.829Z,79.53
2022-11-22T13:16:15.101Z,79.29
2022-11-22T13:18:46.737Z,79.18
2022-11-22T13:21:40.069Z,80.42
2022-11-22T13:24:31.404Z,80.00
2022-11-22T13:27:10.217Z,79.27
2022-11-22T13:29:41.849Z,79.06
2022-11-22T13:32:11.594Z,79.33
2022-11-22T13:35:00.144Z,79.70
2022-11-22T13:37:29.838Z,79.39
2022-11-22T13:39:56.903Z,78.73
2022-11-22T13:42:28.159Z,78.79
2022-11-22T13:44:58.230Z,78.78
2022-11-22T13:47:39.056Z,79.02
2022-11-22T13:50:33.768Z,78.53
2022-11-22T13:53:23.622Z,78.63
2022-11-22T13:55:51.462Z,78.17
2022-11-22T13:58:24.358Z,78.39
2022-11-22T14:00:53.743Z,78.13
2022-11-22T14:03:27.913Z,78.27
2022-11-22T14:05:58.177Z,78.68
2022-11-22T14:08:38.803Z,78.65
2022-11-22T14:11:36.430Z,78.89
2022-11-22T14:14:33.460Z,78.95
2022-11-22T14:17:15.620Z,78.79
2022-11-22T14:20:07.747Z,79.38
2022-11-22T14:22:50.224Z,79.12
2022-11-22T14:25:38.694Z,78.68
2022-11-22T14:28:35.850Z,78.52
2022-11-22T14:31:22.024Z,78.66
2022-11-22T14:34:34.350Z,78.89
2022-11-22T14:37:10.463Z,78.66
2022-11-22T14:39:55.811Z,79.08
2022-11-22T14:42:43.402Z,78.89
2022-11-22T14:45:10.341Z,78.57
2022-11-22T14:47:41.038Z,78.56
2022-11-22T14:50:36.830Z,79.25
2022-11-22T14:53:26.222Z,79.03
2022-11-22T14:56:03.661Z,78.71
2022-11-22T14:58:35.158Z,78.60
2022-11-22T15:01:46.735Z,79.62
2022-11-22T15:09:21.286Z,79.27
2022-11-22T15:09:21.748Z,79.38
2022-11-22T15:10:29.047Z,79.17
2022-11-22T15:13:07.800Z,79.50
2022-11-22T15:57:37.757Z,79.62
2022-11-22T16:00:28.858Z,79.68
2022-11-22T16:03:01.668Z,78.94
2022-11-22T16:06:05.473Z,79.13
2022-11-22T16:08:27.876Z,78.52
2022-11-22T16:10:59.270Z,78.83
2022-11-22T16:13:28.606Z,79.01
2022-11-22T16:16:13.914Z,79.12
2022-11-22T16:18:42.083Z,79.15
2022-11-22T16:21:11.876Z,78.56
2022-11-22T16:23:40.209Z,78.61
2022-11-22T16:26:19.362Z,78.49
2022-11-22T16:28:51.545Z,78.63
2022-11-22T16:31:26.215Z,78.47
2022-11-22T16:33:55.115Z,79.20
2022-11-22T16:36:24.009Z,78.94
2022-11-22T16:38:51.379Z,78.74
2022-11-22T16:41:24.775Z,78.75
2022-11-22T16:43:54.862Z,78.72
2022-11-22T16:46:22.000Z,78.77
2022-11-22T16:48:49.148Z,79.22
2022-11-22T16:51:36.321Z,78.78
2022-11-22T16:54:11.161Z,78.94
2022-11-22T16:56:38.006Z,79.26
2022-11-22T16:59:11.094Z,79.16
2022-11-22T17:01:42.140Z,78.95
2022-11-22T17:04:22.195Z,79.11
2022-11-22T17:06:49.737Z,78.61
2022-11-22T17:09:16.641Z,79.38
2022-11-22T17:11:44.713Z,78.93
2022-11-22T17:14:15.950Z,78.89
2022-11-22T17:16:43.018Z,79.18
2022-11-22T17:19:30.378Z,79.07
2022-11-22T17:21:58.629Z,79.35
2022-11-22T17:24:25.721Z,79.42
2022-11-22T17:26:52.653Z,79.43
2022-11-22T17:29:43.336Z,78.78
2022-11-22T17:32:06.574Z,78.53
2022-11-22T17:34:33.646Z,78.14
2022-11-22T17:37:00.828Z,78.32
2022-11-22T17:39:28.631Z,78.43
2022-11-22T17:41:55.812Z,78.39
2022-11-22T17:44:22.849Z,78.36
2022-11-22T17:46:49.884Z,77.90
2022-11-22T17:49:16.771Z,78.11
2022-11-22T17:51:46.776Z,78.80
2022-11-22T17:54:13.680Z,78.34
2022-11-22T17:56:40.587Z,78.11
2022-11-22T17:59:07.577Z,78.03
2022-11-22T18:01:36.912Z,79.14
2022-11-22T18:04:05.432Z,79.97
2022-11-22T18:06:32.353Z,79.39
2022-11-22T18:09:00.392Z,79.66
2022-11-22T18:11:27.293Z,79.66
2022-11-22T18:13:54.257Z,79.84
2022-11-22T18:16:22.368Z,80.47
2022-11-22T18:18:56.613Z,80.15
2022-11-22T18:21:24.755Z,80.27
2022-11-22T18:23:51.726Z,80.32
2022-11-22T18:31:53.643Z,80.14
2022-11-22T18:34:21.961Z,79.98
2022-11-22T18:37:06.254Z,80.02
2022-11-22T18:39:36.856Z,79.54
2022-11-22T18:42:06.201Z,79.73
2022-11-22T18:44:33.401Z,79.71
2022-11-22T18:47:00.457Z,79.20
2022-11-22T18:49:29.086Z,78.73
2022-11-22T18:51:56.230Z,78.92
2022-11-22T18:54:23.739Z,78.95
2022-11-22T18:56:51.901Z,79.34
2022-11-22T18:59:19.036Z,78.98
2022-11-22T19:01:46.229Z,79.25
2022-11-22T19:04:15.296Z,79.04
2022-11-22T19:06:43.271Z,79.18
2022-11-22T19:09:10.372Z,79.44
2022-11-22T19:11:37.294Z,79.72
2022-11-22T19:14:04.651Z,79.86
2022-11-22T19:16:31.716Z,80.28
2022-11-22T19:18:59.671Z,80.81
2022-11-22T19:21:28.639Z,80.14
2022-11-22T19:23:56.700Z,80.23
2022-11-22T19:26:25.748Z,79.76
2022-11-22T19:28:57.955Z,80.49
2022-11-22T19:31:29.441Z,80.29
2022-11-22T19:33:57.244Z,79.90
2022-11-22T19:36:32.256Z,79.79
2022-11-22T19:39:00.379Z,79.75
2022-11-22T19:41:27.421Z,79.99
2022-11-22T19:43:56.518Z,79.91
2022-11-22T19:46:24.641Z,79.77
2022-11-22T19:48:56.860Z,79.88
2022-11-22T19:51:25.313Z,79.50
2022-11-22T19:53:59.540Z,79.61
2022-11-22T19:56:30.376Z,79.84
2022-11-22T19:58:58.913Z,79.55
2022-11-22T20:01:28.632Z,79.10
2022-11-22T20:04:01.722Z,79.42
2022-11-22T20:06:29.374Z,79.58
2022-11-22T20:09:05.325Z,79.45
2022-11-22T20:11:32.686Z,79.70
2022-11-22T20:13:59.613Z,79.20
2022-11-22T20:16:28.538Z,79.03
2022-11-22T20:19:00.113Z,78.95
2022-11-22T20:21:28.903Z,79.13
2022-11-22T20:23:56.805Z,78.83
2022-11-22T20:26:24.684Z,78.54
2022-11-22T20:29:13.065Z,78.20
2022-11-22T20:31:40.949Z,78.37
2022-11-22T20:34:08.910Z,78.31
2022-11-22T20:36:36.223Z,77.96
2022-11-22T20:39:09.746Z,78.22
2022-11-22T20:41:37.933Z,77.96
2022-11-22T20:44:05.045Z,77.79
2022-11-22T20:46:35.124Z,78.18
2022-11-22T20:49:02.063Z,77.81
2022-11-22T20:51:29.665Z,78.10
2022-11-22T20:53:57.335Z,77.71
2022-11-22T20:56:24.984Z,78.08
2022-11-22T20:58:52.604Z,77.67
2022-11-22T21:01:24.948Z,77.26
2022-11-22T21:03:52.988Z,77.36
2022-11-22T21:06:21.749Z,76.79
2022-11-22T21:08:49.119Z,77.75
2022-11-22T21:11:18.924Z,77.37
2022-11-22T21:13:47.350Z,77.31
2022-11-22T21:16:23.789Z,77.62
2022-11-22T21:19:01.172Z,77.35
2022-11-22T21:21:29.268Z,76.94
2022-11-22T21:23:57.911Z,77.13
2022-11-22T21:26:25.701Z,77.29
2022-11-22T21:28:53.625Z,77.13
2022-11-22T21:31:22.054Z,77.45
2022-11-22T21:33:49.385Z,77.49
2022-11-22T21:36:16.452Z,78.00
2022-11-22T21:38:43.483Z,77.34
2022-11-22T21:41:39.317Z,77.70
2022-11-22T21:44:01.484Z,77.72
2022-11-22T21:46:28.474Z,77.52
2022-11-22T21:48:56.039Z,77.29
2022-11-22T21:51:25.928Z,77.73
2022-11-22T21:53:59.211Z,77.27
2022-11-22T21:56:27.122Z,77.40
2022-11-22T21:58:54.093Z,77.50
2022-11-22T22:01:21.225Z,77.49
2022-11-22T22:03:48.110Z,77.01
2022-11-22T22:06:15.074Z,77.59
2022-11-22T22:08:42.009Z,76.98
2022-11-22T22:11:08.918Z,77.36
2022-11-22T22:13:36.086Z,77.14
2022-11-22T22:16:06.873Z,77.67
2022-11-22T22:18:35.812Z,77.34
2022-11-22T22:21:07.646Z,77.39
2022-11-22T22:23:35.806Z,77.19
2022-11-22T22:26:05.374Z,76.92
2022-11-22T22:28:35.333Z,77.15
2022-11-22T22:31:10.529Z,76.76
2022-11-22T22:33:39.918Z,77.08
2022-11-22T22:36:08.598Z,76.57
2022-11-22T22:38:35.918Z,76.67
2022-11-22T22:41:05.321Z,76.79
2022-11-22T22:43:37.784Z,76.58
2022-11-22T22:46:06.968Z,76.55
2022-11-22T22:48:34.427Z,76.63
2022-11-22T22:51:10.804Z,76.35
2022-11-22T22:53:37.808Z,76.57
2022-11-22T22:56:05.504Z,76.91
2022-11-22T22:58:32.936Z,76.13
2022-11-22T23:01:15.330Z,76.44
2022-11-22T23:03:42.390Z,76.83
2022-11-22T23:06:11.716Z,76.38
2022-11-22T23:08:39.421Z,76.16
2022-11-22T23:11:08.821Z,76.15
2022-11-22T23:13:37.762Z,76.43
2022-11-22T23:16:06.754Z,77.01
2022-11-22T23:18:38.925Z,76.45
2022-11-22T23:21:07.963Z,76.61
2022-11-22T23:23:35.130Z,76.87
2022-11-22T23:26:04.810Z,76.20
2022-11-22T23:28:32.138Z,76.00
2022-11-22T23:31:12.814Z,76.05
2022-11-22T23:33:40.377Z,76.82
2022-11-22T23:36:09.882Z,77.03
2022-11-22T23:38:36.818Z,76.73
2022-11-22T23:41:04.384Z,76.26
2022-11-22T23:43:31.952Z,75.47
2022-11-22T23:45:59.232Z,76.34
2022-11-22T23:48:27.182Z,76.12
2022-11-22T23:50:54.106Z,76.39
2022-11-22T23:53:21.000Z,75.99
2022-11-22T23:55:47.894Z,76.40
2022-11-22T23:58:14.814Z,75.90
